sensor_id;sensor_type;location;lat;lon;timestamp;P1;durP1;ratioP1;P2;durP2;ratioP2
6013;SDS011;3035;49.928;8.410;2023-06-26T00:00:19;10.80;;;5.80;;
6013;SDS011;3035;49.928;8.410;2023-06-26T00:02:47;8.77;;;5.73;;
6013;SDS011;3035;49.928;8.410;2023-06-26T00:05:15;12.17;;;7.00;;
6013;SDS011;3035;49.928;8.410;2023-06-26T00:07:43;11.30;;;5.60;;
6013;SDS011;3035;49.928;8.410;2023-06-26T00:10:11;7.70;;;6.57;;
6013;SDS011;3035;49.928;8.410;2023-06-26T00:12:40;15.10;;;6.00;;
6013;SDS011;3035;49.928;8.410;2023-06-26T00:15:08;20.80;;;6.40;;
6013;SDS011;3035;49.928;8.410;2023-06-26T00:17:37;13.43;;;5.90;;
6013;SDS011;3035;49.928;8.410;2023-06-26T00:20:05;19.53;;;5.73;;
6013;SDS011;3035;49.928;8.410;2023-06-26T00:22:33;9.17;;;5.60;;
6013;SDS011;3035;49.928;8.410;2023-06-26T00:25:01;7.40;;;6.00;;
6013;SDS011;3035;49.928;8.410;2023-06-26T00:27:30;9.53;;;5.70;;
6013;SDS011;3035;49.928;8.410;2023-06-26T00:29:58;10.10;;;6.30;;
6013;SDS011;3035;49.928;8.410;2023-06-26T00:32:26;17.23;;;7.10;;
6013;SDS011;3035;49.928;8.410;2023-06-26T00:34:54;7.90;;;6.07;;
6013;SDS011;3035;49.928;8.410;2023-06-26T00:37:22;10.43;;;5.60;;
6013;SDS011;3035;49.928;8.410;2023-06-26T00:39:51;13.13;;;6.23;;
6013;SDS011;3035;49.928;8.410;2023-06-26T00:42:19;23.30;;;6.50;;
6013;SDS011;3035;49.928;8.410;2023-06-26T00:44:47;8.93;;;6.10;;
6013;SDS011;3035;49.928;8.410;2023-06-26T00:47:17;9.70;;;6.20;;
6013;SDS011;3035;49.928;8.410;2023-06-26T00:49:43;14.43;;;7.60;;
6013;SDS011;3035;49.928;8.410;2023-06-26T00:52:12;15.07;;;5.70;;
6013;SDS011;3035;49.928;8.410;2023-06-26T00:54:40;11.60;;;6.30;;
6013;SDS011;3035;49.928;8.410;2023-06-26T00:57:08;13.03;;;6.30;;
6013;SDS011;3035;49.928;8.410;2023-06-26T00:59:36;10.20;;;6.63;;
6013;SDS011;3035;49.928;8.410;2023-06-26T01:02:04;9.20;;;6.20;;
6013;SDS011;3035;49.928;8.410;2023-06-26T01:04:33;9.33;;;6.90;;
6013;SDS011;3035;49.928;8.410;2023-06-26T01:07:01;8.80;;;6.87;;
6013;SDS011;3035;49.928;8.410;2023-06-26T01:09:29;7.00;;;5.50;;
6013;SDS011;3035;49.928;8.410;2023-06-26T01:11:57;7.63;;;5.70;;
6013;SDS011;3035;49.928;8.410;2023-06-26T01:14:25;13.50;;;6.73;;
6013;SDS011;3035;49.928;8.410;2023-06-26T01:16:54;7.40;;;5.00;;
6013;SDS011;3035;49.928;8.410;2023-06-26T01:19:23;9.70;;;5.97;;
6013;SDS011;3035;49.928;8.410;2023-06-26T01:21:54;11.00;;;6.63;;
6013;SDS011;3035;49.928;8.410;2023-06-26T01:24:36;11.13;;;6.00;;
6013;SDS011;3035;49.928;8.410;2023-06-26T01:27:05;7.20;;;6.23;;
6013;SDS011;3035;49.928;8.410;2023-06-26T01:29:33;13.47;;;6.57;;
6013;SDS011;3035;49.928;8.410;2023-06-26T01:32:01;10.67;;;6.37;;
6013;SDS011;3035;49.928;8.410;2023-06-26T01:34:29;9.70;;;6.17;;
6013;SDS011;3035;49.928;8.410;2023-06-26T01:36:57;8.00;;;5.90;;
6013;SDS011;3035;49.928;8.410;2023-06-26T01:39:26;7.53;;;5.80;;
6013;SDS011;3035;49.928;8.410;2023-06-26T01:41:54;13.80;;;6.43;;
6013;SDS011;3035;49.928;8.410;2023-06-26T01:44:28;10.53;;;6.13;;
6013;SDS011;3035;49.928;8.410;2023-06-26T01:46:58;9.57;;;5.73;;
6013;SDS011;3035;49.928;8.410;2023-06-26T01:49:33;7.20;;;5.97;;
6013;SDS011;3035;49.928;8.410;2023-06-26T01:52:09;10.57;;;6.37;;
6013;SDS011;3035;49.928;8.410;2023-06-26T01:54:37;10.13;;;6.33;;
6013;SDS011;3035;49.928;8.410;2023-06-26T01:57:04;11.57;;;6.20;;
6013;SDS011;3035;49.928;8.410;2023-06-26T01:59:32;8.00;;;5.60;;
6013;SDS011;3035;49.928;8.410;2023-06-26T02:02:00;12.60;;;6.33;;
6013;SDS011;3035;49.928;8.410;2023-06-26T02:04:28;15.33;;;7.07;;
6013;SDS011;3035;49.928;8.410;2023-06-26T02:06:56;11.10;;;6.73;;
6013;SDS011;3035;49.928;8.410;2023-06-26T02:09:25;8.07;;;6.10;;
6013;SDS011;3035;49.928;8.410;2023-06-26T02:11:53;10.83;;;7.37;;
6013;SDS011;3035;49.928;8.410;2023-06-26T02:14:21;11.97;;;7.50;;
6013;SDS011;3035;49.928;8.410;2023-06-26T02:16:49;10.20;;;6.90;;
6013;SDS011;3035;49.928;8.410;2023-06-26T02:19:17;9.63;;;7.60;;
6013;SDS011;3035;49.928;8.410;2023-06-26T02:21:46;14.80;;;7.83;;
6013;SDS011;3035;49.928;8.410;2023-06-26T02:24:15;20.50;;;7.63;;
6013;SDS011;3035;49.928;8.410;2023-06-26T02:26:43;11.57;;;7.47;;
6013;SDS011;3035;49.928;8.410;2023-06-26T02:29:12;15.57;;;7.97;;
6013;SDS011;3035;49.928;8.410;2023-06-26T02:31:40;13.70;;;7.80;;
6013;SDS011;3035;49.928;8.410;2023-06-26T02:34:08;12.17;;;7.80;;
6013;SDS011;3035;49.928;8.410;2023-06-26T02:36:36;26.30;;;8.00;;
6013;SDS011;3035;49.928;8.410;2023-06-26T02:39:05;10.07;;;6.23;;
6013;SDS011;3035;49.928;8.410;2023-06-26T02:41:33;18.80;;;8.10;;
6013;SDS011;3035;49.928;8.410;2023-06-26T02:44:01;9.40;;;7.30;;
6013;SDS011;3035;49.928;8.410;2023-06-26T02:46:29;10.63;;;7.37;;
6013;SDS011;3035;49.928;8.410;2023-06-26T02:48:57;14.50;;;7.63;;
6013;SDS011;3035;49.928;8.410;2023-06-26T02:51:26;11.00;;;7.63;;
6013;SDS011;3035;49.928;8.410;2023-06-26T02:53:54;13.70;;;7.30;;
6013;SDS011;3035;49.928;8.410;2023-06-26T02:56:22;14.63;;;6.80;;
6013;SDS011;3035;49.928;8.410;2023-06-26T02:58:50;10.57;;;6.90;;
6013;SDS011;3035;49.928;8.410;2023-06-26T03:01:18;27.67;;;7.70;;
6013;SDS011;3035;49.928;8.410;2023-06-26T03:03:47;9.23;;;7.40;;
6013;SDS011;3035;49.928;8.410;2023-06-26T03:06:15;14.50;;;6.70;;
6013;SDS011;3035;49.928;8.410;2023-06-26T03:08:43;8.77;;;6.70;;
6013;SDS011;3035;49.928;8.410;2023-06-26T03:11:11;10.77;;;6.67;;
6013;SDS011;3035;49.928;8.410;2023-06-26T03:13:39;11.80;;;7.77;;
6013;SDS011;3035;49.928;8.410;2023-06-26T03:16:08;11.30;;;7.30;;
6013;SDS011;3035;49.928;8.410;2023-06-26T03:18:36;10.47;;;7.10;;
6013;SDS011;3035;49.928;8.410;2023-06-26T03:21:04;11.93;;;7.70;;
6013;SDS011;3035;49.928;8.410;2023-06-26T03:23:32;11.83;;;7.83;;
6013;SDS011;3035;49.928;8.410;2023-06-26T03:26:00;10.30;;;6.77;;
6013;SDS011;3035;49.928;8.410;2023-06-26T03:28:29;10.13;;;7.07;;
6013;SDS011;3035;49.928;8.410;2023-06-26T03:30:58;16.27;;;7.50;;
6013;SDS011;3035;49.928;8.410;2023-06-26T03:33:26;10.73;;;7.37;;
6013;SDS011;3035;49.928;8.410;2023-06-26T03:35:55;24.47;;;7.40;;
6013;SDS011;3035;49.928;8.410;2023-06-26T03:38:24;11.40;;;6.77;;
6013;SDS011;3035;49.928;8.410;2023-06-26T03:40:52;9.50;;;6.90;;
6013;SDS011;3035;49.928;8.410;2023-06-26T03:43:20;17.47;;;7.43;;
6013;SDS011;3035;49.928;8.410;2023-06-26T03:45:49;9.77;;;7.50;;
6013;SDS011;3035;49.928;8.410;2023-06-26T03:48:17;11.30;;;7.30;;
6013;SDS011;3035;49.928;8.410;2023-06-26T03:50:45;24.07;;;6.87;;
6013;SDS011;3035;49.928;8.410;2023-06-26T03:53:14;9.00;;;6.70;;
6013;SDS011;3035;49.928;8.410;2023-06-26T03:55:42;10.10;;;7.37;;
6013;SDS011;3035;49.928;8.410;2023-06-26T03:58:10;8.53;;;6.80;;
6013;SDS011;3035;49.928;8.410;2023-06-26T04:00:38;10.17;;;7.07;;
6013;SDS011;3035;49.928;8.410;2023-06-26T04:03:06;11.37;;;8.10;;
6013;SDS011;3035;49.928;8.410;2023-06-26T04:05:35;10.80;;;7.27;;
6013;SDS011;3035;49.928;8.410;2023-06-26T04:08:04;11.07;;;8.00;;
6013;SDS011;3035;49.928;8.410;2023-06-26T04:10:32;10.13;;;6.40;;
6013;SDS011;3035;49.928;8.410;2023-06-26T04:13:00;9.10;;;6.67;;
6013;SDS011;3035;49.928;8.410;2023-06-26T04:15:28;22.40;;;7.97;;
6013;SDS011;3035;49.928;8.410;2023-06-26T04:17:57;10.30;;;6.40;;
6013;SDS011;3035;49.928;8.410;2023-06-26T04:20:25;16.83;;;7.40;;
6013;SDS011;3035;49.928;8.410;2023-06-26T04:22:53;19.33;;;7.40;;
6013;SDS011;3035;49.928;8.410;2023-06-26T04:25:21;11.63;;;7.13;;
6013;SDS011;3035;49.928;8.410;2023-06-26T04:27:50;12.73;;;6.90;;
6013;SDS011;3035;49.928;8.410;2023-06-26T04:30:18;16.60;;;6.93;;
6013;SDS011;3035;49.928;8.410;2023-06-26T04:32:46;14.17;;;6.90;;
6013;SDS011;3035;49.928;8.410;2023-06-26T04:35:14;10.20;;;7.50;;
6013;SDS011;3035;49.928;8.410;2023-06-26T04:37:42;10.47;;;7.00;;
6013;SDS011;3035;49.928;8.410;2023-06-26T04:40:11;11.00;;;6.87;;
6013;SDS011;3035;49.928;8.410;2023-06-26T04:42:39;23.80;;;6.80;;
6013;SDS011;3035;49.928;8.410;2023-06-26T04:45:07;9.87;;;6.70;;
6013;SDS011;3035;49.928;8.410;2023-06-26T04:47:36;13.00;;;6.40;;
6013;SDS011;3035;49.928;8.410;2023-06-26T04:50:05;15.30;;;5.80;;
6013;SDS011;3035;49.928;8.410;2023-06-26T04:52:33;11.97;;;6.83;;
6013;SDS011;3035;49.928;8.410;2023-06-26T04:55:01;9.60;;;6.40;;
6013;SDS011;3035;49.928;8.410;2023-06-26T04:57:30;9.80;;;6.80;;
6013;SDS011;3035;49.928;8.410;2023-06-26T04:59:58;18.90;;;6.80;;
6013;SDS011;3035;49.928;8.410;2023-06-26T05:02:26;8.70;;;6.03;;
6013;SDS011;3035;49.928;8.410;2023-06-26T05:04:54;15.33;;;6.60;;
6013;SDS011;3035;49.928;8.410;2023-06-26T05:07:22;21.40;;;6.20;;
6013;SDS011;3035;49.928;8.410;2023-06-26T05:09:51;10.27;;;6.50;;
6013;SDS011;3035;49.928;8.410;2023-06-26T05:12:19;8.30;;;6.20;;
6013;SDS011;3035;49.928;8.410;2023-06-26T05:14:47;18.90;;;6.53;;
6013;SDS011;3035;49.928;8.410;2023-06-26T05:17:16;10.53;;;6.53;;
6013;SDS011;3035;49.928;8.410;2023-06-26T05:19:44;16.90;;;6.70;;
6013;SDS011;3035;49.928;8.410;2023-06-26T05:22:12;10.00;;;6.60;;
6013;SDS011;3035;49.928;8.410;2023-06-26T05:24:40;14.10;;;6.83;;
6013;SDS011;3035;49.928;8.410;2023-06-26T05:27:09;17.73;;;7.00;;
6013;SDS011;3035;49.928;8.410;2023-06-26T05:29:38;12.53;;;5.90;;
6013;SDS011;3035;49.928;8.410;2023-06-26T05:32:06;11.33;;;6.90;;
6013;SDS011;3035;49.928;8.410;2023-06-26T05:34:35;10.03;;;6.00;;
6013;SDS011;3035;49.928;8.410;2023-06-26T05:37:04;9.83;;;6.40;;
6013;SDS011;3035;49.928;8.410;2023-06-26T05:39:32;9.43;;;6.97;;
6013;SDS011;3035;49.928;8.410;2023-06-26T05:42:01;12.93;;;6.20;;
6013;SDS011;3035;49.928;8.410;2023-06-26T05:44:29;13.63;;;6.17;;
6013;SDS011;3035;49.928;8.410;2023-06-26T05:46:57;8.53;;;5.07;;
6013;SDS011;3035;49.928;8.410;2023-06-26T05:49:26;8.83;;;6.20;;
6013;SDS011;3035;49.928;8.410;2023-06-26T05:51:54;10.43;;;5.23;;
6013;SDS011;3035;49.928;8.410;2023-06-26T05:54:23;8.93;;;5.80;;
6013;SDS011;3035;49.928;8.410;2023-06-26T05:56:52;10.50;;;7.23;;
6013;SDS011;3035;49.928;8.410;2023-06-26T05:59:20;11.10;;;6.63;;
6013;SDS011;3035;49.928;8.410;2023-06-26T06:01:49;12.30;;;6.57;;
6013;SDS011;3035;49.928;8.410;2023-06-26T06:04:17;8.23;;;5.77;;
6013;SDS011;3035;49.928;8.410;2023-06-26T06:06:45;10.17;;;5.77;;
6013;SDS011;3035;49.928;8.410;2023-06-26T06:09:13;9.83;;;6.97;;
6013;SDS011;3035;49.928;8.410;2023-06-26T06:11:41;17.03;;;5.60;;
6013;SDS011;3035;49.928;8.410;2023-06-26T06:14:10;12.83;;;5.63;;
6013;SDS011;3035;49.928;8.410;2023-06-26T06:16:38;9.10;;;6.30;;
6013;SDS011;3035;49.928;8.410;2023-06-26T06:19:06;10.53;;;7.30;;
6013;SDS011;3035;49.928;8.410;2023-06-26T06:21:34;9.13;;;7.60;;
6013;SDS011;3035;49.928;8.410;2023-06-26T06:24:03;10.77;;;6.80;;
6013;SDS011;3035;49.928;8.410;2023-06-26T06:26:31;8.73;;;6.10;;
6013;SDS011;3035;49.928;8.410;2023-06-26T06:28:59;9.03;;;6.70;;
6013;SDS011;3035;49.928;8.410;2023-06-26T06:31:27;9.30;;;6.50;;
6013;SDS011;3035;49.928;8.410;2023-06-26T06:33:56;15.60;;;7.27;;
6013;SDS011;3035;49.928;8.410;2023-06-26T06:36:24;10.07;;;7.00;;
6013;SDS011;3035;49.928;8.410;2023-06-26T06:38:52;10.73;;;7.50;;
6013;SDS011;3035;49.928;8.410;2023-06-26T06:41:20;9.13;;;6.60;;
6013;SDS011;3035;49.928;8.410;2023-06-26T06:43:48;8.80;;;6.40;;
6013;SDS011;3035;49.928;8.410;2023-06-26T06:46:17;14.27;;;7.10;;
6013;SDS011;3035;49.928;8.410;2023-06-26T06:48:45;8.53;;;6.60;;
6013;SDS011;3035;49.928;8.410;2023-06-26T06:51:13;12.30;;;6.73;;
6013;SDS011;3035;49.928;8.410;2023-06-26T06:53:41;8.87;;;5.57;;
6013;SDS011;3035;49.928;8.410;2023-06-26T06:56:09;10.50;;;6.20;;
6013;SDS011;3035;49.928;8.410;2023-06-26T06:58:38;13.33;;;7.80;;
6013;SDS011;3035;49.928;8.410;2023-06-26T07:01:06;11.50;;;7.33;;
6013;SDS011;3035;49.928;8.410;2023-06-26T07:03:34;12.33;;;7.43;;
6013;SDS011;3035;49.928;8.410;2023-06-26T07:06:02;13.60;;;6.97;;
6013;SDS011;3035;49.928;8.410;2023-06-26T07:08:30;9.33;;;6.57;;
6013;SDS011;3035;49.928;8.410;2023-06-26T07:10:59;11.57;;;7.37;;
6013;SDS011;3035;49.928;8.410;2023-06-26T07:13:27;10.93;;;5.93;;
6013;SDS011;3035;49.928;8.410;2023-06-26T07:15:55;9.83;;;6.93;;
6013;SDS011;3035;49.928;8.410;2023-06-26T07:18:23;9.37;;;6.93;;
6013;SDS011;3035;49.928;8.410;2023-06-26T07:20:51;19.43;;;8.30;;
6013;SDS011;3035;49.928;8.410;2023-06-26T07:23:20;8.17;;;6.50;;
6013;SDS011;3035;49.928;8.410;2023-06-26T07:25:48;13.53;;;6.07;;
6013;SDS011;3035;49.928;8.410;2023-06-26T07:28:16;11.57;;;7.00;;
6013;SDS011;3035;49.928;8.410;2023-06-26T07:30:44;13.50;;;7.57;;
6013;SDS011;3035;49.928;8.410;2023-06-26T07:33:12;9.97;;;6.90;;
6013;SDS011;3035;49.928;8.410;2023-06-26T07:35:41;15.90;;;7.13;;
6013;SDS011;3035;49.928;8.410;2023-06-26T07:38:09;8.17;;;6.97;;
6013;SDS011;3035;49.928;8.410;2023-06-26T07:40:37;9.50;;;6.30;;
6013;SDS011;3035;49.928;8.410;2023-06-26T07:43:05;11.40;;;5.87;;
6013;SDS011;3035;49.928;8.410;2023-06-26T07:45:33;8.03;;;6.20;;
6013;SDS011;3035;49.928;8.410;2023-06-26T07:48:02;9.33;;;6.70;;
6013;SDS011;3035;49.928;8.410;2023-06-26T07:50:30;9.57;;;6.50;;
6013;SDS011;3035;49.928;8.410;2023-06-26T07:52:58;11.33;;;6.20;;
6013;SDS011;3035;49.928;8.410;2023-06-26T07:55:26;9.10;;;7.03;;
6013;SDS011;3035;49.928;8.410;2023-06-26T07:57:54;8.73;;;6.33;;
6013;SDS011;3035;49.928;8.410;2023-06-26T08:00:23;12.23;;;6.03;;
6013;SDS011;3035;49.928;8.410;2023-06-26T08:02:51;8.60;;;6.70;;
6013;SDS011;3035;49.928;8.410;2023-06-26T08:05:19;14.37;;;6.37;;
6013;SDS011;3035;49.928;8.410;2023-06-26T08:07:47;8.93;;;5.70;;
6013;SDS011;3035;49.928;8.410;2023-06-26T08:10:16;8.70;;;5.17;;
6013;SDS011;3035;49.928;8.410;2023-06-26T08:12:45;7.30;;;5.40;;
6013;SDS011;3035;49.928;8.410;2023-06-26T08:15:13;8.97;;;5.80;;
6013;SDS011;3035;49.928;8.410;2023-06-26T08:17:42;10.07;;;5.87;;
6013;SDS011;3035;49.928;8.410;2023-06-26T08:20:11;5.60;;;4.70;;
6013;SDS011;3035;49.928;8.410;2023-06-26T08:22:41;5.63;;;5.00;;
6013;SDS011;3035;49.928;8.410;2023-06-26T08:25:09;6.30;;;5.57;;
6013;SDS011;3035;49.928;8.410;2023-06-26T08:27:37;8.43;;;5.47;;
6013;SDS011;3035;49.928;8.410;2023-06-26T08:30:05;13.23;;;5.60;;
6013;SDS011;3035;49.928;8.410;2023-06-26T08:32:34;7.43;;;5.20;;
6013;SDS011;3035;49.928;8.410;2023-06-26T08:35:02;9.67;;;5.13;;
6013;SDS011;3035;49.928;8.410;2023-06-26T08:37:30;7.10;;;5.17;;
6013;SDS011;3035;49.928;8.410;2023-06-26T08:39:59;10.87;;;5.90;;
6013;SDS011;3035;49.928;8.410;2023-06-26T08:42:28;6.90;;;4.50;;
6013;SDS011;3035;49.928;8.410;2023-06-26T08:44:56;10.53;;;5.37;;
6013;SDS011;3035;49.928;8.410;2023-06-26T08:47:24;5.60;;;4.53;;
6013;SDS011;3035;49.928;8.410;2023-06-26T08:50:00;8.13;;;5.57;;
6013;SDS011;3035;49.928;8.410;2023-06-26T08:52:28;7.20;;;5.70;;
6013;SDS011;3035;49.928;8.410;2023-06-26T08:54:58;7.17;;;4.80;;
6013;SDS011;3035;49.928;8.410;2023-06-26T08:57:26;16.13;;;4.80;;
6013;SDS011;3035;49.928;8.410;2023-06-26T08:59:54;13.70;;;5.03;;
6013;SDS011;3035;49.928;8.410;2023-06-26T09:02:22;7.53;;;4.80;;
6013;SDS011;3035;49.928;8.410;2023-06-26T09:04:51;8.13;;;5.00;;
6013;SDS011;3035;49.928;8.410;2023-06-26T09:07:19;6.27;;;4.47;;
6013;SDS011;3035;49.928;8.410;2023-06-26T09:09:47;5.23;;;4.63;;
6013;SDS011;3035;49.928;8.410;2023-06-26T09:12:16;8.20;;;5.10;;
6013;SDS011;3035;49.928;8.410;2023-06-26T09:14:44;6.70;;;4.70;;
6013;SDS011;3035;49.928;8.410;2023-06-26T09:17:12;8.70;;;5.50;;
6013;SDS011;3035;49.928;8.410;2023-06-26T09:19:40;9.53;;;4.50;;
6013;SDS011;3035;49.928;8.410;2023-06-26T09:22:11;9.20;;;4.67;;
6013;SDS011;3035;49.928;8.410;2023-06-26T09:24:40;5.90;;;4.00;;
6013;SDS011;3035;49.928;8.410;2023-06-26T09:27:08;6.30;;;4.50;;
6013;SDS011;3035;49.928;8.410;2023-06-26T09:29:36;6.13;;;4.50;;
6013;SDS011;3035;49.928;8.410;2023-06-26T09:32:04;6.40;;;5.00;;
6013;SDS011;3035;49.928;8.410;2023-06-26T09:34:33;7.13;;;4.90;;
6013;SDS011;3035;49.928;8.410;2023-06-26T09:37:01;4.80;;;4.30;;
6013;SDS011;3035;49.928;8.410;2023-06-26T09:39:30;8.60;;;4.37;;
6013;SDS011;3035;49.928;8.410;2023-06-26T09:41:58;6.30;;;4.87;;
6013;SDS011;3035;49.928;8.410;2023-06-26T09:44:26;12.90;;;5.20;;
6013;SDS011;3035;49.928;8.410;2023-06-26T09:46:54;5.47;;;4.87;;
6013;SDS011;3035;49.928;8.410;2023-06-26T09:49:23;9.00;;;4.33;;
6013;SDS011;3035;49.928;8.410;2023-06-26T09:51:51;10.07;;;4.77;;
6013;SDS011;3035;49.928;8.410;2023-06-26T09:54:19;6.90;;;4.70;;
6013;SDS011;3035;49.928;8.410;2023-06-26T09:56:47;7.13;;;4.37;;
6013;SDS011;3035;49.928;8.410;2023-06-26T09:59:15;8.67;;;4.70;;
6013;SDS011;3035;49.928;8.410;2023-06-26T10:01:45;16.90;;;5.30;;
6013;SDS011;3035;49.928;8.410;2023-06-26T10:04:12;5.30;;;4.60;;
6013;SDS011;3035;49.928;8.410;2023-06-26T10:06:44;8.13;;;4.40;;
6013;SDS011;3035;49.928;8.410;2023-06-26T10:09:10;8.60;;;5.30;;
6013;SDS011;3035;49.928;8.410;2023-06-26T10:11:41;10.23;;;4.70;;
6013;SDS011;3035;49.928;8.410;2023-06-26T10:14:09;10.93;;;5.10;;
6013;SDS011;3035;49.928;8.410;2023-06-26T10:16:38;6.30;;;4.67;;
6013;SDS011;3035;49.928;8.410;2023-06-26T10:19:06;6.33;;;5.00;;
6013;SDS011;3035;49.928;8.410;2023-06-26T10:21:34;5.87;;;4.70;;
6013;SDS011;3035;49.928;8.410;2023-06-26T10:24:03;7.80;;;4.67;;
6013;SDS011;3035;49.928;8.410;2023-06-26T10:26:34;12.63;;;4.43;;
6013;SDS011;3035;49.928;8.410;2023-06-26T10:29:01;8.47;;;4.93;;
6013;SDS011;3035;49.928;8.410;2023-06-26T10:31:29;7.63;;;5.03;;
6013;SDS011;3035;49.928;8.410;2023-06-26T10:33:57;6.60;;;5.23;;
6013;SDS011;3035;49.928;8.410;2023-06-26T10:36:28;9.00;;;5.00;;
6013;SDS011;3035;49.928;8.410;2023-06-26T10:38:56;5.93;;;5.17;;
6013;SDS011;3035;49.928;8.410;2023-06-26T10:41:23;12.10;;;4.40;;
6013;SDS011;3035;49.928;8.410;2023-06-26T10:43:59;10.13;;;4.30;;
6013;SDS011;3035;49.928;8.410;2023-06-26T10:46:24;5.67;;;4.50;;
6013;SDS011;3035;49.928;8.410;2023-06-26T10:48:57;7.70;;;4.93;;
6013;SDS011;3035;49.928;8.410;2023-06-26T10:51:26;5.23;;;4.37;;
6013;SDS011;3035;49.928;8.410;2023-06-26T10:53:54;4.93;;;4.30;;
6013;SDS011;3035;49.928;8.410;2023-06-26T10:59:14;9.07;;;4.60;;
6013;SDS011;3035;49.928;8.410;2023-06-26T11:01:45;6.30;;;4.07;;
6013;SDS011;3035;49.928;8.410;2023-06-26T11:04:13;5.20;;;4.37;;
6013;SDS011;3035;49.928;8.410;2023-06-26T11:06:44;12.27;;;4.93;;
6013;SDS011;3035;49.928;8.410;2023-06-26T11:09:11;5.40;;;4.10;;
6013;SDS011;3035;49.928;8.410;2023-06-26T11:14:26;11.80;;;4.97;;
6013;SDS011;3035;49.928;8.410;2023-06-26T11:16:55;6.97;;;4.10;;
6013;SDS011;3035;49.928;8.410;2023-06-26T11:19:23;6.73;;;4.87;;
6013;SDS011;3035;49.928;8.410;2023-06-26T11:21:51;8.53;;;4.50;;
6013;SDS011;3035;49.928;8.410;2023-06-26T11:24:19;6.93;;;4.30;;
6013;SDS011;3035;49.928;8.410;2023-06-26T11:26:47;5.00;;;3.93;;
6013;SDS011;3035;49.928;8.410;2023-06-26T11:29:16;4.57;;;3.60;;
6013;SDS011;3035;49.928;8.410;2023-06-26T11:31:44;6.03;;;4.70;;
6013;SDS011;3035;49.928;8.410;2023-06-26T11:34:13;6.17;;;5.00;;
6013;SDS011;3035;49.928;8.410;2023-06-26T11:36:42;6.70;;;5.13;;
6013;SDS011;3035;49.928;8.410;2023-06-26T11:39:09;12.40;;;5.53;;
6013;SDS011;3035;49.928;8.410;2023-06-26T11:41:38;6.60;;;5.30;;
6013;SDS011;3035;49.928;8.410;2023-06-26T11:44:07;12.13;;;5.33;;
6013;SDS011;3035;49.928;8.410;2023-06-26T11:46:35;8.20;;;4.80;;
6013;SDS011;3035;49.928;8.410;2023-06-26T11:49:04;6.70;;;6.00;;
6013;SDS011;3035;49.928;8.410;2023-06-26T11:51:33;11.20;;;6.23;;
6013;SDS011;3035;49.928;8.410;2023-06-26T11:54:01;7.10;;;6.40;;
6013;SDS011;3035;49.928;8.410;2023-06-26T11:56:30;7.77;;;6.17;;
6013;SDS011;3035;49.928;8.410;2023-06-26T11:59:00;10.27;;;7.03;;
6013;SDS011;3035;49.928;8.410;2023-06-26T12:01:34;11.53;;;7.63;;
6013;SDS011;3035;49.928;8.410;2023-06-26T12:04:04;12.40;;;7.47;;
6013;SDS011;3035;49.928;8.410;2023-06-26T12:06:32;19.20;;;8.07;;
6013;SDS011;3035;49.928;8.410;2023-06-26T12:09:01;9.33;;;8.10;;
6013;SDS011;3035;49.928;8.410;2023-06-26T12:11:29;10.50;;;6.63;;
6013;SDS011;3035;49.928;8.410;2023-06-26T12:13:57;10.90;;;6.90;;
6013;SDS011;3035;49.928;8.410;2023-06-26T12:16:27;9.60;;;6.63;;
6013;SDS011;3035;49.928;8.410;2023-06-26T12:18:59;7.77;;;6.10;;
6013;SDS011;3035;49.928;8.410;2023-06-26T12:24:14;7.33;;;6.30;;
6013;SDS011;3035;49.928;8.410;2023-06-26T12:26:41;7.17;;;6.47;;
6013;SDS011;3035;49.928;8.410;2023-06-26T12:29:12;7.63;;;6.00;;
6013;SDS011;3035;49.928;8.410;2023-06-26T12:31:41;14.27;;;5.50;;
6013;SDS011;3035;49.928;8.410;2023-06-26T12:34:10;6.90;;;4.90;;
6013;SDS011;3035;49.928;8.410;2023-06-26T12:36:39;6.87;;;5.00;;
6013;SDS011;3035;49.928;8.410;2023-06-26T12:39:09;15.13;;;4.90;;
6013;SDS011;3035;49.928;8.410;2023-06-26T12:41:43;5.60;;;4.30;;
6013;SDS011;3035;49.928;8.410;2023-06-26T12:44:17;4.10;;;3.60;;
6013;SDS011;3035;49.928;8.410;2023-06-26T12:46:48;5.07;;;4.10;;
6013;SDS011;3035;49.928;8.410;2023-06-26T12:49:16;7.20;;;3.70;;
6013;SDS011;3035;49.928;8.410;2023-06-26T12:51:43;6.60;;;3.83;;
6013;SDS011;3035;49.928;8.410;2023-06-26T12:54:12;7.23;;;3.17;;
6013;SDS011;3035;49.928;8.410;2023-06-26T12:56:40;4.27;;;3.20;;
6013;SDS011;3035;49.928;8.410;2023-06-26T12:59:08;3.50;;;3.20;;
6013;SDS011;3035;49.928;8.410;2023-06-26T13:01:36;2.93;;;2.70;;
6013;SDS011;3035;49.928;8.410;2023-06-26T13:04:05;5.87;;;2.80;;
6013;SDS011;3035;49.928;8.410;2023-06-26T13:06:33;5.33;;;3.13;;
6013;SDS011;3035;49.928;8.410;2023-06-26T13:09:01;5.73;;;2.87;;
6013;SDS011;3035;49.928;8.410;2023-06-26T13:11:31;5.63;;;2.80;;
6013;SDS011;3035;49.928;8.410;2023-06-26T13:13:59;12.07;;;3.47;;
6013;SDS011;3035;49.928;8.410;2023-06-26T13:16:27;6.23;;;3.30;;
6013;SDS011;3035;49.928;8.410;2023-06-26T13:18:57;8.77;;;3.30;;
6013;SDS011;3035;49.928;8.410;2023-06-26T13:21:24;8.13;;;3.70;;
6013;SDS011;3035;49.928;8.410;2023-06-26T13:23:52;3.77;;;3.40;;
6013;SDS011;3035;49.928;8.410;2023-06-26T13:26:20;8.73;;;4.10;;
6013;SDS011;3035;49.928;8.410;2023-06-26T13:28:49;6.90;;;4.20;;
6013;SDS011;3035;49.928;8.410;2023-06-26T13:31:17;9.20;;;4.00;;
6013;SDS011;3035;49.928;8.410;2023-06-26T13:33:47;5.37;;;3.47;;
6013;SDS011;3035;49.928;8.410;2023-06-26T13:36:17;15.93;;;3.87;;
6013;SDS011;3035;49.928;8.410;2023-06-26T13:38:45;17.23;;;3.47;;
6013;SDS011;3035;49.928;8.410;2023-06-26T13:41:14;7.60;;;3.60;;
6013;SDS011;3035;49.928;8.410;2023-06-26T13:43:42;4.27;;;3.03;;
6013;SDS011;3035;49.928;8.410;2023-06-26T13:46:11;7.43;;;3.77;;
6013;SDS011;3035;49.928;8.410;2023-06-26T13:48:39;7.23;;;2.80;;
6013;SDS011;3035;49.928;8.410;2023-06-26T13:51:07;15.37;;;3.80;;
6013;SDS011;3035;49.928;8.410;2023-06-26T13:53:36;5.67;;;3.20;;
6013;SDS011;3035;49.928;8.410;2023-06-26T13:56:05;6.67;;;3.50;;
6013;SDS011;3035;49.928;8.410;2023-06-26T13:58:34;9.97;;;3.30;;
6013;SDS011;3035;49.928;8.410;2023-06-26T14:01:03;9.10;;;3.13;;
6013;SDS011;3035;49.928;8.410;2023-06-26T14:03:32;6.00;;;2.93;;
6013;SDS011;3035;49.928;8.410;2023-06-26T14:06:00;8.43;;;3.00;;
6013;SDS011;3035;49.928;8.410;2023-06-26T14:08:28;4.03;;;2.67;;
6013;SDS011;3035;49.928;8.410;2023-06-26T14:10:57;11.20;;;2.40;;
6013;SDS011;3035;49.928;8.410;2023-06-26T14:13:25;4.70;;;2.70;;
6013;SDS011;3035;49.928;8.410;2023-06-26T14:15:54;2.90;;;2.10;;
6013;SDS011;3035;49.928;8.410;2023-06-26T14:18:22;5.90;;;2.30;;
6013;SDS011;3035;49.928;8.410;2023-06-26T14:20:50;12.90;;;1.83;;
6013;SDS011;3035;49.928;8.410;2023-06-26T14:23:18;4.30;;;1.97;;
6013;SDS011;3035;49.928;8.410;2023-06-26T14:25:46;5.57;;;2.20;;
6013;SDS011;3035;49.928;8.410;2023-06-26T14:28:15;2.47;;;1.77;;
6013;SDS011;3035;49.928;8.410;2023-06-26T14:30:44;7.77;;;2.10;;
6013;SDS011;3035;49.928;8.410;2023-06-26T14:33:12;6.17;;;2.57;;
6013;SDS011;3035;49.928;8.410;2023-06-26T14:35:41;6.00;;;2.90;;
6013;SDS011;3035;49.928;8.410;2023-06-26T14:38:09;4.17;;;2.43;;
6013;SDS011;3035;49.928;8.410;2023-06-26T14:40:37;2.23;;;1.97;;
6013;SDS011;3035;49.928;8.410;2023-06-26T14:43:05;2.20;;;1.83;;
6013;SDS011;3035;49.928;8.410;2023-06-26T14:45:34;4.80;;;1.90;;
6013;SDS011;3035;49.928;8.410;2023-06-26T14:48:02;6.43;;;2.73;;
6013;SDS011;3035;49.928;8.410;2023-06-26T14:50:30;8.37;;;2.40;;
6013;SDS011;3035;49.928;8.410;2023-06-26T14:52:58;13.80;;;2.53;;
6013;SDS011;3035;49.928;8.410;2023-06-26T14:55:26;3.23;;;2.23;;
6013;SDS011;3035;49.928;8.410;2023-06-26T14:57:55;11.50;;;2.63;;
6013;SDS011;3035;49.928;8.410;2023-06-26T15:00:23;9.33;;;2.70;;
6013;SDS011;3035;49.928;8.410;2023-06-26T15:02:51;7.73;;;2.77;;
6013;SDS011;3035;49.928;8.410;2023-06-26T15:05:20;8.60;;;2.10;;
6013;SDS011;3035;49.928;8.410;2023-06-26T15:07:48;4.50;;;2.07;;
6013;SDS011;3035;49.928;8.410;2023-06-26T15:10:16;5.13;;;2.20;;
6013;SDS011;3035;49.928;8.410;2023-06-26T15:12:44;6.00;;;1.80;;
6013;SDS011;3035;49.928;8.410;2023-06-26T15:15:12;8.70;;;1.90;;
6013;SDS011;3035;49.928;8.410;2023-06-26T15:17:40;18.03;;;2.37;;
6013;SDS011;3035;49.928;8.410;2023-06-26T15:20:10;4.80;;;2.30;;
6013;SDS011;3035;49.928;8.410;2023-06-26T15:22:38;3.43;;;1.93;;
6013;SDS011;3035;49.928;8.410;2023-06-26T15:25:06;4.17;;;1.87;;